Time;durP1;ratioP1;P1;durP2;ratioP2;P2;SDS_P1;SDS_P2;PMS_P1;PMS_P2;Temp;Humidity;BMP_temperature;BMP_pressure;BME280_temperature;BME280_humidity;BME280_pressure;Samples;Min_cycle;Max_cycle;Signal;HPM_P1;HPM_P2
2021/09/12 00:00:48;;;;;;;8.73;7.85;;;;;;;;;;5073276;28;20898;-56
2021/09/12 00:03:16;;;;;;;8.80;8.00;;;;;;;;;;5073413;28;20212;-56
2021/09/12 00:05:44;;;;;;;9.33;8.53;;;;;;;;;;5073050;28;20931;-56
2021/09/12 00:08:11;;;;;;;9.30;8.50;;;;;;;;;;5072939;28;20996;-56
2021/09/12 00:10:39;;;;;;;8.53;7.73;;;;;;;;;;5073213;28;20459;-56
2021/09/12 00:13:06;;;;;;;8.80;8.00;;;;;;;;;;5072794;28;20990;-56
2021/09/12 00:15:33;;;;;;;8.70;8.00;;;;;;;;;;5073098;28;20523;-56
2021/09/12 00:18:00;;;;;;;8.67;7.87;;;;;;;;;;5073151;28;20496;-57
2021/09/12 00:20:28;;;;;;;8.87;7.97;;;;;;;;;;5072739;28;20955;-56
2021/09/12 00:22:56;;;;;;;8.50;7.70;;;;;;;;;;5073296;28;20444;-56
2021/09/12 00:25:24;;;;;;;9.03;7.80;;;;;;;;;;5078101;28;20801;-56
2021/09/12 00:27:51;;;;;;;10.33;9.07;;;;;;;;;;5076927;28;20992;-56
2021/09/12 00:30:18;;;;;;;9.07;8.07;;;;;;;;;;5077000;28;20443;-56
2021/09/12 00:32:45;;;;;;;8.27;7.47;;;;;;;;;;5076624;28;20488;-56
2021/09/12 00:35:13;;;;;;;8.73;7.90;;;;;;;;;;5077059;28;20443;-56
2021/09/12 00:37:40;;;;;;;8.80;8.00;;;;;;;;;;5076677;28;20939;-56
2021/09/12 00:40:10;;;;;;;10.07;8.53;;;;;;;;;;5076616;28;20263;-56
2021/09/12 00:42:37;;;;;;;7.80;7.10;;;;;;;;;;5076566;28;20439;-56
2021/09/12 00:45:04;;;;;;;9.30;8.40;;;;;;;;;;5076830;28;20443;-56
2021/09/12 00:47:32;;;;;;;8.87;8.03;;;;;;;;;;5076588;28;20439;-55
2021/09/12 00:49:59;;;;;;;8.43;7.63;;;;;;;;;;5077094;28;20443;-56
2021/09/12 00:52:27;;;;;;;9.38;8.35;;;;;;;;;;5076699;28;20467;-56
2021/09/12 00:54:55;;;;;;;12.67;7.53;;;;;;;;;;5076714;28;20217;-56
2021/09/12 00:57:24;;;;;;;8.50;7.70;;;;;;;;;;5076329;28;20804;-56
2021/09/12 00:59:52;;;;;;;8.50;7.70;;;;;;;;;;5076530;28;20490;-56
2021/09/12 01:02:19;;;;;;;8.03;7.33;;;;;;;;;;5076071;28;20548;-56
2021/09/12 01:04:47;;;;;;;8.20;7.40;;;;;;;;;;5076544;28;20504;-56
2021/09/12 01:07:14;;;;;;;7.70;6.60;;;;;;;;;;5076259;28;20493;-56
2021/09/12 01:09:42;;;;;;;7.90;7.10;;;;;;;;;;5076600;28;20443;-56
2021/09/12 01:12:09;;;;;;;7.37;6.60;;;;;;;;;;5076244;28;20524;-56
2021/09/12 01:14:38;;;;;;;8.07;7.27;;;;;;;;;;5076290;28;20475;-56
2021/09/12 01:17:06;;;;;;;7.20;6.50;;;;;;;;;;5076223;28;20447;-56
2021/09/12 01:19:33;;;;;;;6.30;5.60;;;;;;;;;;5076254;28;20446;-56
2021/09/12 01:22:01;;;;;;;7.43;5.90;;;;;;;;;;5076188;28;20536;-56
2021/09/12 01:24:30;;;;;;;7.30;6.67;;;;;;;;;;5075858;28;20923;-56
2021/09/12 01:26:57;;;;;;;6.70;6.10;;;;;;;;;;5075765;28;20845;-56
2021/09/12 01:29:25;;;;;;;6.63;6.03;;;;;;;;;;5076024;28;20505;-56
2021/09/12 01:31:52;;;;;;;6.77;6.17;;;;;;;;;;5076269;28;20839;-55
2021/09/12 01:34:19;;;;;;;7.63;6.83;;;;;;;;;;5075964;28;21011;-56
2021/09/12 01:36:46;;;;;;;7.17;6.47;;;;;;;;;;5075270;28;20512;-56
2021/09/12 01:39:14;;;;;;;6.50;5.50;;;;;;;;;;5076051;28;20496;-56
2021/09/12 01:41:42;;;;;;;7.00;6.30;;;;;;;;;;5075499;28;20467;-56
2021/09/12 01:44:11;;;;;;;7.20;6.60;;;;;;;;;;5075877;28;20496;-56
2021/09/12 01:46:46;;;;;;;6.83;6.23;;;;;;;;;;5075849;28;20451;-56
2021/09/12 01:49:13;;;;;;;7.33;6.63;;;;;;;;;;5075926;28;20431;-56
2021/09/12 01:51:41;;;;;;;6.60;5.90;;;;;;;;;;5075745;28;20459;-56
2021/09/12 01:54:08;;;;;;;6.90;6.30;;;;;;;;;;5075382;28;20551;-56
2021/09/12 01:56:35;;;;;;;6.47;5.87;;;;;;;;;;5075464;28;20927;-56
2021/09/12 01:59:04;;;;;;;9.40;6.30;;;;;;;;;;5075582;28;20505;-56
2021/09/12 02:01:32;;;;;;;6.57;5.87;;;;;;;;;;5075161;28;20479;-56
2021/09/12 02:03:59;;;;;;;8.10;6.60;;;;;;;;;;5075472;28;20432;-56
2021/09/12 02:06:26;;;;;;;8.73;6.03;;;;;;;;;;5075123;28;20451;-55
2021/09/12 02:08:53;;;;;;;9.80;6.37;;;;;;;;;;5075358;28;20443;-56
2021/09/12 02:11:21;;;;;;;7.17;5.93;;;;;;;;;;5074857;28;20970;-57
2021/09/12 02:13:48;;;;;;;6.17;5.57;;;;;;;;;;5074878;28;20562;-55
2021/09/12 02:16:17;;;;;;;5.43;4.80;;;;;;;;;;5074874;28;20448;-56
2021/09/12 02:18:45;;;;;;;7.43;6.03;;;;;;;;;;5074741;28;20494;-55
2021/09/12 02:21:12;;;;;;;5.88;5.38;;;;;;;;;;5074898;28;20469;-56
2021/09/12 02:23:39;;;;;;;5.90;5.30;;;;;;;;;;5075048;28;20197;-56
2021/09/12 02:26:06;;;;;;;5.93;5.27;;;;;;;;;;5074593;28;20439;-56
2021/09/12 02:28:34;;;;;;;6.93;5.37;;;;;;;;;;5074951;28;20473;-57
2021/09/12 02:31:01;;;;;;;4.63;4.23;;;;;;;;;;5074803;28;20622;-56
2021/09/12 02:33:29;;;;;;;5.90;5.37;;;;;;;;;;5074392;28;20986;-57
2021/09/12 02:35:57;;;;;;;5.18;4.68;;;;;;;;;;5074745;28;20875;-55
2021/09/12 02:38:24;;;;;;;4.80;4.40;;;;;;;;;;5074514;28;20741;-56
2021/09/12 02:40:51;;;;;;;7.30;4.67;;;;;;;;;;5075195;28;20463;-56
2021/09/12 02:43:19;;;;;;;5.00;4.53;;;;;;;;;;5074320;28;20447;-56
2021/09/12 02:45:46;;;;;;;5.73;5.23;;;;;;;;;;5074638;28;20435;-56
2021/09/12 02:48:13;;;;;;;7.00;5.00;;;;;;;;;;5073202;28;20863;-57
2021/09/12 02:50:42;;;;;;;6.67;6.07;;;;;;;;;;5074197;28;20516;-56
2021/09/12 02:53:09;;;;;;;6.97;6.47;;;;;;;;;;5074112;28;20497;-56
2021/09/12 02:55:36;;;;;;;7.23;6.53;;;;;;;;;;5074276;28;20479;-56
2021/09/12 02:58:03;;;;;;;7.43;5.87;;;;;;;;;;5074404;28;20447;-56
2021/09/12 03:00:30;;;;;;;6.87;6.30;;;;;;;;;;5074133;28;20504;-57
2021/09/12 03:02:58;;;;;;;6.63;5.95;;;;;;;;;;5073979;28;20424;-56
2021/09/12 03:05:25;;;;;;;7.20;6.50;;;;;;;;;;5073996;28;20730;-56
2021/09/12 03:07:54;;;;;;;6.30;5.80;;;;;;;;;;5074136;28;20440;-56
2021/09/12 03:10:21;;;;;;;7.80;5.70;;;;;;;;;;5074052;28;20497;-56
2021/09/12 03:12:48;;;;;;;6.43;5.90;;;;;;;;;;5073723;28;20447;-56
2021/09/12 03:15:15;;;;;;;6.77;6.17;;;;;;;;;;5073941;28;20667;-56
2021/09/12 03:17:43;;;;;;;6.43;5.82;;;;;;;;;;5073952;28;20456;-56
2021/09/12 03:20:10;;;;;;;7.10;6.40;;;;;;;;;;5074080;28;20204;-56
2021/09/12 03:22:38;;;;;;;10.37;6.50;;;;;;;;;;5073823;28;20492;-56
2021/09/12 03:25:07;;;;;;;6.33;5.70;;;;;;;;;;5073777;28;20439;-56
2021/09/12 03:27:35;;;;;;;7.13;6.43;;;;;;;;;;5073733;28;20443;-56
2021/09/12 03:30:02;;;;;;;6.70;6.00;;;;;;;;;;5074910;28;20504;-56
2021/09/12 03:32:29;;;;;;;8.27;5.50;;;;;;;;;;5074438;28;20467;-56
2021/09/12 03:34:56;;;;;;;6.67;6.07;;;;;;;;;;5073327;28;20483;-56
2021/09/12 03:37:24;;;;;;;7.53;6.83;;;;;;;;;;5073288;28;20493;-56
2021/09/12 03:39:51;;;;;;;6.37;5.80;;;;;;;;;;5073243;28;20943;-56
2021/09/12 03:42:19;;;;;;;6.15;5.63;;;;;;;;;;5073204;28;20463;-56
2021/09/12 03:44:47;;;;;;;8.60;7.10;;;;;;;;;;5073475;28;20255;-56
2021/09/12 03:47:14;;;;;;;6.60;6.00;;;;;;;;;;5074282;28;20860;-56
2021/09/12 03:49:41;;;;;;;7.23;6.53;;;;;;;;;;5073105;28;20493;-56
2021/09/12 03:52:08;;;;;;;6.55;5.95;;;;;;;;;;5073044;28;20520;-56
2021/09/12 03:54:36;;;;;;;7.10;6.50;;;;;;;;;;5073299;28;20568;-56
2021/09/12 03:57:03;;;;;;;6.63;5.90;;;;;;;;;;5073346;28;20451;-56
2021/09/12 03:59:32;;;;;;;5.80;5.30;;;;;;;;;;5073460;28;20992;-56
2021/09/12 04:01:59;;;;;;;6.75;6.00;;;;;;;;;;5108505;22;20895;-64
2021/09/12 04:04:26;;;;;;;6.90;6.30;;;;;;;;;;5113713;28;20200;-63
2021/09/12 04:08:36;;;;;;;6.63;6.03;;;;;;;;;;5132625;27;20540;-64
2021/09/12 04:11:03;;;;;;;6.67;6.07;;;;;;;;;;5131840;27;20536;-65
2021/09/12 04:13:30;;;;;;;7.73;6.93;;;;;;;;;;5132057;27;20501;-64
2021/09/12 04:15:57;;;;;;;7.40;6.43;;;;;;;;;;5132750;27;20464;-64
2021/09/12 04:18:25;;;;;;;7.30;6.60;;;;;;;;;;5131441;27;20453;-64
2021/09/12 04:20:52;;;;;;;7.43;6.73;;;;;;;;;;5131921;27;20437;-64
2021/09/12 04:23:19;;;;;;;7.40;6.80;;;;;;;;;;5131726;27;20471;-64
2021/09/12 04:25:48;;;;;;;8.63;7.73;;;;;;;;;;5131465;27;20470;-64
2021/09/12 04:28:16;;;;;;;9.20;8.30;;;;;;;;;;5131429;27;20478;-63
2021/09/12 04:30:43;;;;;;;8.20;7.50;;;;;;;;;;5131291;27;20508;-63
2021/09/12 04:33:11;;;;;;;8.80;8.00;;;;;;;;;;5131350;27;20830;-64
2021/09/12 04:35:38;;;;;;;9.17;8.37;;;;;;;;;;5131372;27;20437;-65
2021/09/12 04:38:05;;;;;;;8.73;7.93;;;;;;;;;;5131347;27;20623;-65
2021/09/12 04:40:33;;;;;;;12.87;8.57;;;;;;;;;;5131207;27;20442;-64
2021/09/12 04:43:01;;;;;;;10.70;9.60;;;;;;;;;;5131214;27;20873;-63
2021/09/12 04:45:29;;;;;;;11.30;10.07;;;;;;;;;;5139945;27;20467;-64
2021/09/12 04:47:56;;;;;;;8.83;7.97;;;;;;;;;;5140315;27;20490;-64
2021/09/12 04:50:23;;;;;;;10.63;9.57;;;;;;;;;;5131534;27;20498;-64
2021/09/12 04:52:50;;;;;;;10.30;8.87;;;;;;;;;;5131032;27;20514;-64
2021/09/12 04:55:17;;;;;;;11.70;9.20;;;;;;;;;;5131244;27;20860;-64
2021/09/12 04:57:45;;;;;;;12.80;11.47;;;;;;;;;;5131706;27;20492;-64
2021/09/12 05:00:14;;;;;;;12.93;11.67;;;;;;;;;;5130885;27;20829;-64
2021/09/12 05:02:41;;;;;;;13.30;11.13;;;;;;;;;;5130760;27;20464;-64
2021/09/12 05:05:09;;;;;;;11.60;10.50;;;;;;;;;;5130321;27;20448;-64
2021/09/12 05:07:36;;;;;;;11.97;10.50;;;;;;;;;;5130433;27;20478;-64
2021/09/12 05:10:04;;;;;;;12.70;11.40;;;;;;;;;;5130789;27;20505;-64
2021/09/12 05:12:31;;;;;;;13.20;11.90;;;;;;;;;;5130392;27;20834;-64
2021/09/12 05:14:59;;;;;;;14.03;12.63;;;;;;;;;;5130498;27;20445;-64
2021/09/12 05:17:27;;;;;;;13.77;12.40;;;;;;;;;;5130534;27;20454;-63
2021/09/12 05:19:54;;;;;;;14.63;13.13;;;;;;;;;;5117287;27;20445;-63
2021/09/12 05:22:22;;;;;;;14.23;12.47;;;;;;;;;;5116360;28;20471;-64
2021/09/12 05:24:49;;;;;;;13.93;11.97;;;;;;;;;;5116698;28;20445;-64
2021/09/12 05:27:16;;;;;;;13.83;11.87;;;;;;;;;;5116632;28;20480;-65
2021/09/12 05:29:43;;;;;;;15.93;13.87;;;;;;;;;;5116362;28;21003;-64
2021/09/12 05:32:11;;;;;;;14.47;13.10;;;;;;;;;;5116159;28;20462;-64
2021/09/12 05:34:39;;;;;;;14.27;12.80;;;;;;;;;;5116305;28;20515;-63
2021/09/12 05:37:07;;;;;;;15.77;13.13;;;;;;;;;;5116469;28;20434;-64
2021/09/12 05:39:34;;;;;;;14.80;13.20;;;;;;;;;;5116092;28;20446;-63
2021/09/12 05:42:01;;;;;;;16.53;14.67;;;;;;;;;;5116340;28;20516;-63
2021/09/12 05:44:28;;;;;;;16.10;12.43;;;;;;;;;;5116382;28;20446;-64
2021/09/12 05:46:55;;;;;;;14.13;12.63;;;;;;;;;;5116203;28;20551;-63
2021/09/12 05:49:23;;;;;;;16.07;14.30;;;;;;;;;;5115973;28;20957;-64
2021/09/12 05:51:51;;;;;;;16.07;13.67;;;;;;;;;;5115961;28;20966;-63
2021/09/12 05:54:19;;;;;;;14.60;13.10;;;;;;;;;;5116138;28;20516;-64
2021/09/12 05:56:48;;;;;;;14.67;13.07;;;;;;;;;;5116155;28;20442;-64
2021/09/12 05:59:15;;;;;;;16.87;13.97;;;;;;;;;;5115975;28;20453;-64
2021/09/12 06:01:42;;;;;;;15.07;13.40;;;;;;;;;;5115895;28;20518;-63
2021/09/12 06:04:10;;;;;;;17.17;15.07;;;;;;;;;;5116073;28;20440;-65
2021/09/12 06:06:37;;;;;;;15.87;14.30;;;;;;;;;;5115668;28;20465;-64
2021/09/12 06:09:06;;;;;;;16.93;14.50;;;;;;;;;;5115808;28;20515;-64
2021/09/12 06:11:33;;;;;;;15.07;13.50;;;;;;;;;;5115851;28;20442;-64
2021/09/12 06:14:01;;;;;;;19.77;16.67;;;;;;;;;;5115866;28;20446;-64
2021/09/12 06:16:28;;;;;;;16.67;14.03;;;;;;;;;;5115971;28;20457;-64
2021/09/12 06:18:55;;;;;;;18.07;14.70;;;;;;;;;;5115797;28;20515;-63
2021/09/12 06:21:22;;;;;;;18.90;14.90;;;;;;;;;;5115843;28;20450;-65
2021/09/12 06:23:50;;;;;;;16.83;15.10;;;;;;;;;;5115572;28;20506;-63
2021/09/12 06:26:18;;;;;;;18.40;16.47;;;;;;;;;;5115419;28;20445;-63
2021/09/12 06:28:46;;;;;;;17.07;14.87;;;;;;;;;;5115733;28;20509;-64
2021/09/12 06:31:13;;;;;;;20.00;17.83;;;;;;;;;;5116346;28;20830;-65
2021/09/12 06:33:40;;;;;;;18.10;16.27;;;;;;;;;;5116155;28;20889;-63
2021/09/12 06:36:07;;;;;;;20.07;16.40;;;;;;;;;;5115406;28;20537;-64
2021/09/12 06:38:35;;;;;;;20.50;17.57;;;;;;;;;;5115274;28;20442;-64
2021/09/12 06:41:02;;;;;;;23.30;19.43;;;;;;;;;;5115798;28;20443;-62
2021/09/12 06:43:31;;;;;;;20.90;18.00;;;;;;;;;;5115242;28;20542;-65
2021/09/12 06:45:58;;;;;;;20.87;17.90;;;;;;;;;;5115028;28;20450;-65
2021/09/12 06:48:25;;;;;;;21.50;17.40;;;;;;;;;;5114958;28;20474;-64
2021/09/12 06:50:53;;;;;;;21.80;18.57;;;;;;;;;;5116428;28;20454;-65
2021/09/12 06:53:21;;;;;;;23.23;18.90;;;;;;;;;;5117242;27;20562;-64
2021/09/12 06:55:48;;;;;;;24.90;17.90;;;;;;;;;;5121536;28;20526;-68
2021/09/12 06:58:16;;;;;;;23.17;18.87;;;;;;;;;;5120640;28;20491;-66
2021/09/12 07:00:45;;;;;;;22.30;19.40;;;;;;;;;;5121200;28;20452;-63
2021/09/12 07:03:12;;;;;;;28.37;20.90;;;;;;;;;;5121039;28;20515;-62
2021/09/12 07:05:39;;;;;;;25.70;19.97;;;;;;;;;;5117999;28;20446;-64
2021/09/12 07:08:06;;;;;;;26.43;20.90;;;;;;;;;;5114709;28;20488;-63
2021/09/12 07:10:34;;;;;;;31.27;21.40;;;;;;;;;;5114817;28;20494;-64
2021/09/12 07:13:01;;;;;;;26.03;20.43;;;;;;;;;;5114723;28;20884;-64
2021/09/12 07:15:28;;;;;;;26.87;21.57;;;;;;;;;;5114705;28;20500;-64
2021/09/12 07:17:57;;;;;;;28.57;22.10;;;;;;;;;;5114911;28;20437;-64
2021/09/12 07:20:24;;;;;;;28.43;22.37;;;;;;;;;;5115110;27;20492;-65
2021/09/12 07:22:51;;;;;;;26.27;19.70;;;;;;;;;;5115339;28;20464;-64
2021/09/12 07:25:19;;;;;;;28.53;21.60;;;;;;;;;;5114532;28;20445;-63
2021/09/12 07:27:46;;;;;;;28.60;21.93;;;;;;;;;;5114623;28;20547;-63
2021/09/12 07:30:14;;;;;;;23.53;19.17;;;;;;;;;;5114071;28;20930;-64
2021/09/12 07:32:42;;;;;;;23.50;19.63;;;;;;;;;;5114603;28;20462;-65
2021/09/12 07:35:11;;;;;;;26.63;20.60;;;;;;;;;;5115240;28;20504;-64
2021/09/12 07:37:39;;;;;;;24.80;19.10;;;;;;;;;;5116007;28;20439;-65
2021/09/12 07:40:07;;;;;;;25.53;20.40;;;;;;;;;;5115160;28;20536;-64
2021/09/12 07:42:34;;;;;;;23.30;19.07;;;;;;;;;;5113615;28;20468;-65
2021/09/12 07:45:02;;;;;;;20.93;18.50;;;;;;;;;;5114727;28;20508;-63
2021/09/12 07:47:29;;;;;;;24.17;20.37;;;;;;;;;;5114538;28;20450;-64
2021/09/12 07:49:56;;;;;;;24.10;20.10;;;;;;;;;;5114023;28;20447;-64
2021/09/12 07:52:25;;;;;;;26.80;20.63;;;;;;;;;;5115738;28;20467;-64
2021/09/12 07:54:52;;;;;;;23.60;18.77;;;;;;;;;;5113851;28;20866;-64
2021/09/12 07:57:19;;;;;;;27.60;21.20;;;;;;;;;;5113608;28;20447;-64
2021/09/12 07:59:47;;;;;;;25.63;20.60;;;;;;;;;;5113948;28;20487;-64
2021/09/12 08:02:14;;;;;;;24.37;20.20;;;;;;;;;;5113774;28;20467;-64
2021/09/12 08:04:41;;;;;;;25.27;19.90;;;;;;;;;;5114000;28;20843;-64
2021/09/12 08:07:08;;;;;;;20.53;17.07;;;;;;;;;;5113556;28;20488;-62
2021/09/12 08:09:37;;;;;;;28.57;19.13;;;;;;;;;;5113860;28;20474;-64
2021/09/12 08:12:04;;;;;;;25.80;19.87;;;;;;;;;;5113537;28;20969;-62
2021/09/12 08:14:32;;;;;;;22.27;17.10;;;;;;;;;;5114130;28;20457;-64
2021/09/12 08:16:59;;;;;;;21.63;17.40;;;;;;;;;;5113923;28;20451;-63
2021/09/12 08:19:26;;;;;;;19.80;17.63;;;;;;;;;;5113444;28;20451;-64
2021/09/12 08:21:53;;;;;;;22.43;17.40;;;;;;;;;;5113722;28;20583;-63
2021/09/12 08:24:21;;;;;;;20.30;16.20;;;;;;;;;;5114138;28;20511;-63
2021/09/12 08:26:49;;;;;;;20.67;16.03;;;;;;;;;;5113200;28;20786;-63
2021/09/12 08:29:16;;;;;;;17.60;14.43;;;;;;;;;;5112737;28;21083;-61
2021/09/12 08:31:44;;;;;;;16.83;13.90;;;;;;;;;;5112908;28;20975;-60
2021/09/12 08:34:11;;;;;;;16.50;14.67;;;;;;;;;;5113301;28;20500;-64
2021/09/12 08:36:38;;;;;;;16.60;14.33;;;;;;;;;;5114219;28;20448;-66
2021/09/12 08:39:05;;;;;;;15.97;12.93;;;;;;;;;;5113876;28;20437;-63
2021/09/12 08:41:33;;;;;;;15.63;12.73;;;;;;;;;;5113658;28;20456;-64
2021/09/12 08:44:02;;;;;;;14.53;13.10;;;;;;;;;;5113535;28;20447;-63
2021/09/12 08:46:29;;;;;;;13.00;11.17;;;;;;;;;;5114400;28;20443;-64
2021/09/12 08:48:56;;;;;;;12.43;10.40;;;;;;;;;;5114077;28;20545;-63
2021/09/12 08:51:24;;;;;;;12.07;10.87;;;;;;;;;;5113356;28;20506;-64
2021/09/12 08:53:51;;;;;;;12.30;10.53;;;;;;;;;;5114807;28;20447;-64
2021/09/12 08:56:19;;;;;;;13.63;11.67;;;;;;;;;;5117372;28;20458;-62
2021/09/12 08:58:46;;;;;;;12.90;11.40;;;;;;;;;;5118021;28;20447;-63
2021/09/12 09:01:14;;;;;;;11.77;10.47;;;;;;;;;;5117577;28;20443;-63
2021/09/12 09:03:43;;;;;;;11.30;9.90;;;;;;;;;;5117620;28;20512;-64
2021/09/12 09:06:13;;;;;;;12.40;9.63;;;;;;;;;;5117056;28;20466;-63
2021/09/12 09:08:50;;;;;;;10.50;9.50;;;;;;;;;;5117221;28;20463;-63
2021/09/12 09:11:27;;;;;;;10.30;8.70;;;;;;;;;;5117233;28;20492;-63
2021/09/12 09:13:54;;;;;;;11.87;9.47;;;;;;;;;;5117334;28;20423;-63
2021/09/12 09:16:27;;;;;;;11.10;9.90;;;;;;;;;;5116963;28;20500;-64
2021/09/12 09:19:02;;;;;;;10.53;8.60;;;;;;;;;;5116997;28;20424;-64
2021/09/12 09:21:30;;;;;;;10.03;7.77;;;;;;;;;;5117125;28;20455;-63
2021/09/12 09:24:11;;;;;;;10.93;8.70;;;;;;;;;;5117077;28;20531;-63
2021/09/12 09:26:39;;;;;;;11.00;8.73;;;;;;;;;;5116877;28;20527;-63
2021/09/12 09:29:06;;;;;;;10.10;8.70;;;;;;;;;;5116564;28;20574;-63
2021/09/12 09:31:35;;;;;;;9.40;8.20;;;;;;;;;;5116528;28;20456;-64
2021/09/12 09:34:18;;;;;;;9.73;8.67;;;;;;;;;;5116606;28;20862;-64
2021/09/12 09:36:46;;;;;;;9.93;8.70;;;;;;;;;;5115967;28;20999;-62
2021/09/12 09:39:13;;;;;;;9.70;8.37;;;;;;;;;;5116770;28;20432;-63
2021/09/12 09:41:41;;;;;;;10.23;8.67;;;;;;;;;;5116420;28;20448;-61
2021/09/12 09:44:10;;;;;;;9.43;8.13;;;;;;;;;;5116718;28;20517;-62
2021/09/12 09:46:40;;;;;;;8.87;7.80;;;;;;;;;;5117245;28;20471;-64
2021/09/12 09:49:20;;;;;;;10.83;8.20;;;;;;;;;;5116505;28;20521;-63
2021/09/12 09:51:48;;;;;;;11.60;8.50;;;;;;;;;;5116895;28;20507;-64
2021/09/12 09:54:16;;;;;;;9.53;8.53;;;;;;;;;;5116548;27;20559;-63
2021/09/12 09:56:44;;;;;;;8.20;7.40;;;;;;;;;;5116345;28;20523;-64
2021/09/12 09:59:11;;;;;;;8.40;7.60;;;;;;;;;;5116744;28;20503;-66
2021/09/12 10:01:40;;;;;;;8.50;7.67;;;;;;;;;;5116575;27;20445;-63
2021/09/12 10:04:07;;;;;;;10.63;7.83;;;;;;;;;;5117097;27;20820;-64
2021/09/12 10:06:35;;;;;;;7.97;7.17;;;;;;;;;;5116851;28;20832;-63
2021/09/12 10:09:03;;;;;;;7.97;7.17;;;;;;;;;;5116491;28;20459;-63
2021/09/12 10:11:31;;;;;;;9.03;7.27;;;;;;;;;;5116907;28;20446;-66
2021/09/12 10:13:59;;;;;;;8.17;7.30;;;;;;;;;;5115911;28;20449;-63
2021/09/12 10:16:27;;;;;;;8.37;7.50;;;;;;;;;;5116968;28;20445;-63
2021/09/12 10:18:56;;;;;;;8.93;7.13;;;;;;;;;;5116568;28;20445;-63
2021/09/12 10:21:24;;;;;;;11.50;7.60;;;;;;;;;;5115913;28;20461;-64
2021/09/12 10:24:02;;;;;;;8.17;7.27;;;;;;;;;;5115718;28;20446;-63
2021/09/12 10:26:31;;;;;;;9.70;6.80;;;;;;;;;;5115299;28;20448;-64
2021/09/12 10:28:58;;;;;;;11.90;8.40;;;;;;;;;;5115283;27;20473;-64
2021/09/12 10:31:38;;;;;;;8.80;6.80;;;;;;;;;;5115347;28;20596;-63
2021/09/12 10:34:11;;;;;;;9.50;6.30;;;;;;;;;;5115509;28;20437;-63
2021/09/12 10:36:39;;;;;;;7.67;6.70;;;;;;;;;;5115233;28;20542;-63
2021/09/12 10:39:25;;;;;;;11.23;6.57;;;;;;;;;;5115210;28;20438;-63
2021/09/12 10:42:07;;;;;;;8.00;7.00;;;;;;;;;;5115181;28;20534;-64
2021/09/12 10:44:34;;;;;;;7.03;5.70;;;;;;;;;;5114811;28;20997;-64
2021/09/12 10:47:07;;;;;;;8.53;6.63;;;;;;;;;;5114848;28;20449;-62
2021/09/12 10:49:35;;;;;;;9.80;7.00;;;;;;;;;;5115011;28;20458;-65
2021/09/12 10:52:03;;;;;;;11.60;7.13;;;;;;;;;;5115609;28;20469;-64
2021/09/12 10:54:31;;;;;;;8.33;5.17;;;;;;;;;;5115102;28;20845;-64
2021/09/12 10:57:06;;;;;;;6.80;5.70;;;;;;;;;;5114807;28;20456;-63
2021/09/12 10:59:33;;;;;;;8.23;5.53;;;;;;;;;;5114478;27;20804;-64
2021/09/12 11:02:01;;;;;;;8.03;6.30;;;;;;;;;;5114708;28;20549;-63
2021/09/12 11:04:29;;;;;;;5.73;5.00;;;;;;;;;;5114780;28;20449;-64
2021/09/12 11:07:02;;;;;;;7.50;4.83;;;;;;;;;;5114601;28;20460;-64
2021/09/12 11:09:29;;;;;;;6.57;5.03;;;;;;;;;;5114693;28;20462;-64
2021/09/12 11:11:57;;;;;;;7.03;5.47;;;;;;;;;;5114397;28;20462;-64
2021/09/12 11:14:25;;;;;;;10.07;5.13;;;;;;;;;;5114955;28;20441;-63
2021/09/12 11:16:52;;;;;;;5.10;4.60;;;;;;;;;;5113966;28;20506;-63
2021/09/12 11:19:20;;;;;;;5.20;4.70;;;;;;;;;;5114404;28;20446;-63
2021/09/12 11:21:49;;;;;;;6.30;5.33;;;;;;;;;;5114528;28;20473;-63
2021/09/12 11:24:18;;;;;;;8.10;5.10;;;;;;;;;;5114301;28;20446;-63
2021/09/12 11:26:46;;;;;;;8.23;5.20;;;;;;;;;;5114407;28;20907;-63
2021/09/12 11:29:14;;;;;;;5.77;5.20;;;;;;;;;;5115248;28;20477;-64
2021/09/12 11:31:42;;;;;;;8.80;5.33;;;;;;;;;;5114455;28;20491;-62
2021/09/12 11:34:10;;;;;;;8.17;4.87;;;;;;;;;;5114164;28;20458;-63
2021/09/12 11:36:50;;;;;;;7.00;5.30;;;;;;;;;;5114278;28;20445;-63
2021/09/12 11:39:21;;;;;;;11.10;4.77;;;;;;;;;;5113963;28;20426;-64
2021/09/12 11:41:48;;;;;;;6.10;4.53;;;;;;;;;;5113625;28;20979;-63
2021/09/12 11:44:15;;;;;;;7.37;5.20;;;;;;;;;;5113573;28;20953;-63
2021/09/12 11:46:43;;;;;;;7.57;4.40;;;;;;;;;;5114022;28;20494;-63
2021/09/12 11:49:10;;;;;;;5.53;4.83;;;;;;;;;;5113955;28;20564;-63
2021/09/12 11:51:38;;;;;;;7.73;5.10;;;;;;;;;;5113854;28;20447;-64
2021/09/12 11:54:07;;;;;;;6.37;5.67;;;;;;;;;;5113822;28;20503;-64
2021/09/12 11:56:35;;;;;;;5.00;4.50;;;;;;;;;;5113741;28;20503;-62
2021/09/12 11:59:03;;;;;;;5.03;4.57;;;;;;;;;;5114036;28;20453;-63
2021/09/12 12:01:31;;;;;;;6.43;4.93;;;;;;;;;;5113615;28;20449;-61
2021/09/12 12:03:58;;;;;;;6.70;4.40;;;;;;;;;;5114014;28;20445;-63
2021/09/12 12:06:25;;;;;;;4.67;4.27;;;;;;;;;;5113950;28;20437;-63
2021/09/12 12:09:06;;;;;;;6.80;4.07;;;;;;;;;;5113978;28;20783;-64
2021/09/12 12:11:33;;;;;;;5.63;4.20;;;;;;;;;;5114116;28;20925;-62
2021/09/12 12:14:02;;;;;;;5.10;4.17;;;;;;;;;;5114659;28;20846;-63
2021/09/12 12:16:38;;;;;;;5.93;4.30;;;;;;;;;;5115293;28;20934;-63
2021/09/12 12:19:07;;;;;;;5.97;3.50;;;;;;;;;;5114951;28;20418;-63
2021/09/12 12:21:35;;;;;;;7.70;3.90;;;;;;;;;;5114375;28;20442;-61
2021/09/12 12:24:09;;;;;;;8.33;4.50;;;;;;;;;;5113661;28;20928;-63
2021/09/12 12:26:39;;;;;;;5.60;4.00;;;;;;;;;;5114114;28;20505;-63
2021/09/12 12:29:08;;;;;;;3.83;3.47;;;;;;;;;;5115572;28;20527;-63
2021/09/12 12:31:36;;;;;;;6.00;3.37;;;;;;;;;;5117305;28;20945;-63
2021/09/12 12:34:04;;;;;;;5.33;3.23;;;;;;;;;;5118133;28;20899;-63
2021/09/12 12:36:31;;;;;;;4.53;3.50;;;;;;;;;;5118989;28;20494;-63
2021/09/12 12:39:13;;;;;;;4.40;3.07;;;;;;;;;;5118896;28;20449;-62
2021/09/12 12:41:51;;;;;;;4.30;3.87;;;;;;;;;;5117628;28;20483;-62
2021/09/12 12:44:20;;;;;;;6.43;3.40;;;;;;;;;;5117946;28;20913;-63
2021/09/12 12:46:47;;;;;;;4.10;3.20;;;;;;;;;;5118141;28;20498;-63
2021/09/12 12:49:22;;;;;;;5.93;3.10;;;;;;;;;;5117984;28;20546;-63
2021/09/12 12:52:01;;;;;;;5.60;3.00;;;;;;;;;;5118612;28;20523;-63
2021/09/12 12:54:31;;;;;;;7.07;4.23;;;;;;;;;;5118462;28;20425;-62
2021/09/12 12:56:58;;;;;;;4.13;3.27;;;;;;;;;;5118026;28;20481;-64
2021/09/12 12:59:26;;;;;;;3.93;3.63;;;;;;;;;;5116682;28;20446;-63
2021/09/12 13:01:54;;;;;;;5.03;4.53;;;;;;;;;;5117100;28;20541;-64
2021/09/12 13:04:21;;;;;;;8.07;4.63;;;;;;;;;;5116823;28;20445;-64
2021/09/12 13:06:48;;;;;;;5.23;3.70;;;;;;;;;;5116797;28;20933;-63
2021/09/12 13:09:15;;;;;;;6.70;3.83;;;;;;;;;;5116758;28;20477;-64
2021/09/12 13:11:44;;;;;;;6.50;3.10;;;;;;;;;;5116901;28;20461;-64
2021/09/12 13:14:12;;;;;;;12.27;3.87;;;;;;;;;;5121153;28;20477;-64
2021/09/12 13:16:40;;;;;;;4.13;3.20;;;;;;;;;;5119858;28;20529;-63
2021/09/12 13:19:08;;;;;;;5.55;3.30;;;;;;;;;;5119546;28;20499;-63
2021/09/12 13:21:35;;;;;;;4.77;3.63;;;;;;;;;;5121527;28;20200;-64
2021/09/12 13:24:02;;;;;;;5.33;3.47;;;;;;;;;;5121786;28;20452;-64
2021/09/12 13:26:29;;;;;;;4.70;3.33;;;;;;;;;;5119359;28;20450;-63
2021/09/12 13:28:57;;;;;;;5.30;3.40;;;;;;;;;;5116870;28;20994;-64
2021/09/12 13:31:24;;;;;;;4.93;4.20;;;;;;;;;;5116647;28;20477;-63
2021/09/12 13:33:55;;;;;;;5.23;4.20;;;;;;;;;;5116655;28;20536;-63
2021/09/12 13:36:22;;;;;;;4.07;3.67;;;;;;;;;;5116804;28;20498;-63
2021/09/12 13:38:49;;;;;;;6.47;3.53;;;;;;;;;;5116282;28;20442;-64
2021/09/12 13:41:17;;;;;;;4.83;3.43;;;;;;;;;;5116639;28;20490;-63
2021/09/12 13:43:44;;;;;;;4.13;3.73;;;;;;;;;;5116213;28;20461;-64
2021/09/12 13:46:12;;;;;;;5.30;4.13;;;;;;;;;;5116416;28;20568;-63
2021/09/12 13:48:39;;;;;;;5.90;4.30;;;;;;;;;;5116620;27;20491;-64
2021/09/12 13:51:08;;;;;;;4.10;3.70;;;;;;;;;;5116429;28;20482;-64
2021/09/12 13:53:35;;;;;;;6.53;5.20;;;;;;;;;;5116086;28;20462;-63
2021/09/12 13:56:02;;;;;;;6.77;5.30;;;;;;;;;;5116256;28;20494;-63
2021/09/12 13:58:30;;;;;;;6.50;4.90;;;;;;;;;;5115951;28;20937;-63
2021/09/12 14:00:57;;;;;;;6.23;4.67;;;;;;;;;;5115932;28;20450;-63
2021/09/12 14:03:24;;;;;;;6.33;5.73;;;;;;;;;;5115890;28;20492;-64
2021/09/12 14:05:51;;;;;;;7.63;6.10;;;;;;;;;;5116014;28;20441;-63
2021/09/12 14:08:23;;;;;;;6.07;5.15;;;;;;;;;;5115676;28;20447;-64
2021/09/12 14:10:56;;;;;;;5.53;5.00;;;;;;;;;;5115428;27;20204;-64
2021/09/12 14:13:24;;;;;;;7.90;5.80;;;;;;;;;;5115118;28;20480;-63
2021/09/12 14:15:51;;;;;;;6.00;5.40;;;;;;;;;;5115381;28;20494;-64
2021/09/12 14:18:18;;;;;;;6.47;5.73;;;;;;;;;;5115821;28;20532;-65
2021/09/12 14:20:45;;;;;;;6.93;5.87;;;;;;;;;;5115694;28;20438;-64
2021/09/12 14:23:13;;;;;;;7.87;6.23;;;;;;;;;;5115332;28;21018;-62
2021/09/12 14:25:41;;;;;;;7.40;5.03;;;;;;;;;;5115743;28;20491;-64
2021/09/12 14:28:09;;;;;;;5.50;5.00;;;;;;;;;;5115277;28;20941;-63
2021/09/12 14:30:36;;;;;;;6.13;5.00;;;;;;;;;;5115773;28;20473;-64
2021/09/12 14:33:04;;;;;;;6.33;5.50;;;;;;;;;;5114873;28;20466;-62
2021/09/12 14:35:32;;;;;;;6.23;5.50;;;;;;;;;;5114993;28;20956;-63
2021/09/12 14:37:59;;;;;;;5.97;5.37;;;;;;;;;;5115399;28;20499;-65
2021/09/12 14:40:27;;;;;;;6.20;4.70;;;;;;;;;;5115798;28;20491;-64